Time;durP1;ratioP1;P1;durP2;ratioP2;P2;SDS_P1;SDS_P2;PMS_P1;PMS_P2;Temp;Humidity;BMP_temperature;BMP_pressure;BME280_temperature;BME280_humidity;BME280_pressure;Samples;Min_cycle;Max_cycle;Signal;HPM_P1;HPM_P2
2021/10/21 00:01:05;;;;;;;5.90;3.83;;;16.20;99.90;;;;;;5031410;28;20441;-71
2021/10/21 00:03:31;;;;;;;4.20;3.80;;;16.20;99.90;;;;;;5030830;28;20178;-71
2021/10/21 00:05:57;;;;;;;3.67;3.40;;;16.20;99.90;;;;;;5029564;27;20458;-71
2021/10/21 00:08:23;;;;;;;4.90;3.30;;;16.20;99.90;;;;;;5031334;28;20182;-71
2021/10/21 00:10:50;;;;;;;4.40;3.40;;;16.20;99.90;;;;;;5031502;28;20406;-71
2021/10/21 00:13:16;;;;;;;5.17;3.40;;;16.30;99.90;;;;;;5032958;28;20410;-70
2021/10/21 00:15:42;;;;;;;5.97;3.73;;;16.30;99.90;;;;;;5033566;28;20506;-71
2021/10/21 00:18:08;;;;;;;3.63;3.33;;;16.30;99.90;;;;;;5026299;27;20849;-71
2021/10/21 00:20:33;;;;;;;4.40;3.40;;;16.30;99.90;;;;;;5025171;28;20417;-71
2021/10/21 00:22:59;;;;;;;4.73;3.50;;;16.30;99.90;;;;;;5031438;28;20497;-71
2021/10/21 00:25:24;;;;;;;4.03;3.10;;;16.30;99.90;;;;;;5030165;28;20260;-71
2021/10/21 00:27:50;;;;;;;3.47;3.17;;;16.40;99.90;;;;;;5030493;28;20189;-71
2021/10/21 00:30:16;;;;;;;4.00;3.20;;;16.40;99.90;;;;;;5030793;28;20306;-71
2021/10/21 00:32:42;;;;;;;4.10;3.43;;;16.40;99.90;;;;;;5028363;27;20216;-71
2021/10/21 00:35:09;;;;;;;3.40;3.10;;;16.40;99.90;;;;;;5030610;28;20186;-71
2021/10/21 00:37:34;;;;;;;3.00;2.70;;;16.40;99.90;;;;;;5029399;28;20805;-71
2021/10/21 00:40:00;;;;;;;2.97;2.63;;;16.40;99.90;;;;;;5031050;28;20454;-71
2021/10/21 00:42:26;;;;;;;2.63;2.43;;;16.40;99.90;;;;;;5030111;28;20203;-71
2021/10/21 00:44:51;;;;;;;3.30;3.07;;;16.30;99.90;;;;;;5030466;28;20521;-71
2021/10/21 00:47:17;;;;;;;4.30;2.97;;;16.30;99.90;;;;;;5030951;27;20171;-71
2021/10/21 00:49:42;;;;;;;2.77;2.50;;;16.30;99.90;;;;;;5030311;28;20186;-71
2021/10/21 00:52:08;;;;;;;6.20;3.50;;;16.30;99.90;;;;;;5029441;28;20172;-71
2021/10/21 00:54:36;;;;;;;4.70;3.67;;;16.30;99.90;;;;;;5030705;28;20185;-71
2021/10/21 00:57:02;;;;;;;3.03;2.83;;;16.20;99.90;;;;;;5031133;28;20236;-71
2021/10/21 00:59:30;;;;;;;4.90;3.13;;;16.10;99.90;;;;;;5031041;28;20445;-71
2021/10/21 01:01:57;;;;;;;5.60;3.30;;;16.10;99.90;;;;;;5031250;27;20495;-71
2021/10/21 01:04:22;;;;;;;2.83;2.63;;;16.10;99.90;;;;;;5029935;28;20429;-71
2021/10/21 01:06:48;;;;;;;3.80;3.00;;;16.10;99.90;;;;;;5032432;28;20902;-71
2021/10/21 01:09:14;;;;;;;3.00;2.70;;;16.00;99.90;;;;;;5030925;28;20175;-71
2021/10/21 01:11:41;;;;;;;3.80;3.13;;;16.00;99.90;;;;;;5030676;28;20172;-71
2021/10/21 01:14:07;;;;;;;3.77;3.20;;;16.00;99.90;;;;;;5029066;27;20659;-71
2021/10/21 01:16:33;;;;;;;4.60;2.70;;;16.00;99.90;;;;;;5030648;28;20433;-71
2021/10/21 01:18:58;;;;;;;4.03;2.70;;;15.90;99.90;;;;;;5031023;28;20174;-71
2021/10/21 01:21:24;;;;;;;3.27;2.90;;;15.90;99.90;;;;;;5039306;28;20508;-71
2021/10/21 01:23:49;;;;;;;4.90;2.87;;;15.90;99.90;;;;;;5029630;28;20244;-71
2021/10/21 01:26:15;;;;;;;3.37;2.20;;;15.90;99.90;;;;;;5030205;28;20568;-71
2021/10/21 01:28:42;;;;;;;2.85;2.30;;;15.90;99.90;;;;;;5029561;28;20406;-71
2021/10/21 01:31:08;;;;;;;2.20;2.10;;;15.80;99.90;;;;;;5029681;28;20258;-71
2021/10/21 01:33:35;;;;;;;2.10;1.93;;;15.80;99.90;;;;;;5030048;28;20505;-71
2021/10/21 01:36:02;;;;;;;2.73;1.93;;;15.80;99.90;;;;;;5028690;28;20203;-71
2021/10/21 01:38:27;;;;;;;2.30;2.10;;;15.80;99.90;;;;;;5030980;28;20406;-71
2021/10/21 01:40:53;;;;;;;2.10;1.90;;;15.70;99.90;;;;;;5030592;27;20486;-71
2021/10/21 01:43:19;;;;;;;4.53;2.07;;;15.60;99.90;;;;;;5037320;28;20195;-70
2021/10/21 01:45:45;;;;;;;4.87;2.00;;;15.60;99.90;;;;;;5038726;28;20191;-70
2021/10/21 01:48:11;;;;;;;2.27;1.40;;;15.60;99.90;;;;;;5016984;28;20612;-71
2021/10/21 01:50:36;;;;;;;1.50;1.40;;;15.60;99.90;;;;;;5013776;28;20207;-71
2021/10/21 01:53:02;;;;;;;2.27;1.33;;;15.60;99.90;;;;;;5013725;28;20422;-70
2021/10/21 01:55:28;;;;;;;1.40;1.10;;;15.50;99.90;;;;;;5013603;27;20286;-71
2021/10/21 01:57:53;;;;;;;1.20;1.10;;;15.50;99.90;;;;;;5028773;28;20454;-70
2021/10/21 02:00:21;;;;;;;1.67;1.57;;;15.50;99.90;;;;;;5033332;28;20179;-71
2021/10/21 02:02:48;;;;;;;2.03;1.20;;;15.40;99.90;;;;;;5033085;28;20267;-71
2021/10/21 02:05:15;;;;;;;3.60;1.33;;;15.40;99.90;;;;;;5033037;28;20535;-71
2021/10/21 02:07:43;;;;;;;1.60;1.30;;;15.40;99.90;;;;;;5032009;28;20811;-71
2021/10/21 02:10:11;;;;;;;1.07;0.97;;;15.30;99.90;;;;;;5033355;28;20410;-71
2021/10/21 02:12:37;;;;;;;1.80;1.10;;;15.30;99.90;;;;;;5032983;28;20445;-71
2021/10/21 02:15:03;;;;;;;3.43;1.33;;;15.20;99.90;;;;;;5032810;28;20460;-71
2021/10/21 02:17:29;;;;;;;4.17;1.57;;;15.10;99.90;;;;;;5031430;28;20175;-70
2021/10/21 02:19:54;;;;;;;1.97;1.10;;;15.10;99.90;;;;;;5032987;28;20420;-71
2021/10/21 02:22:20;;;;;;;3.63;1.03;;;15.10;99.90;;;;;;5032482;28;20425;-71
2021/10/21 02:24:46;;;;;;;1.77;0.90;;;15.00;99.90;;;;;;5032479;27;20289;-71
2021/10/21 02:27:12;;;;;;;1.80;0.90;;;15.00;99.90;;;;;;5033213;28;20261;-71
2021/10/21 02:29:38;;;;;;;4.37;1.20;;;14.90;99.90;;;;;;5031354;28;20889;-71
2021/10/21 02:32:03;;;;;;;1.83;1.10;;;14.90;99.90;;;;;;5033462;28;20179;-71
2021/10/21 02:34:29;;;;;;;2.57;1.30;;;14.90;99.90;;;;;;5032422;28;20478;-70
2021/10/21 02:36:55;;;;;;;4.57;1.10;;;14.80;99.90;;;;;;5032918;27;20264;-71
2021/10/21 02:39:20;;;;;;;4.47;1.20;;;14.80;99.90;;;;;;5031266;28;20210;-70
2021/10/21 02:41:46;;;;;;;3.23;1.00;;;14.80;99.90;;;;;;5029269;28;20597;-70
2021/10/21 02:44:12;;;;;;;3.80;1.13;;;14.70;99.90;;;;;;5012465;28;20536;-70
2021/10/21 02:46:37;;;;;;;2.33;0.80;;;14.70;99.90;;;;;;5012862;28;20195;-71
2021/10/21 02:49:03;;;;;;;2.10;1.40;;;14.80;99.90;;;;;;5012919;27;20214;-71
2021/10/21 02:51:29;;;;;;;1.83;1.10;;;14.70;99.90;;;;;;5013333;28;20186;-71
2021/10/21 02:53:54;;;;;;;1.33;0.80;;;14.70;99.90;;;;;;5013503;28;20848;-71
2021/10/21 02:56:21;;;;;;;2.60;1.30;;;14.70;99.90;;;;;;5012790;28;20587;-70
2021/10/21 02:58:47;;;;;;;3.73;1.10;;;14.60;99.90;;;;;;5013381;28;20600;-71
2021/10/21 03:01:13;;;;;;;0.93;0.83;;;14.60;99.90;;;;;;5013244;28;20180;-70
2021/10/21 03:03:38;;;;;;;2.03;1.10;;;14.60;99.90;;;;;;5013517;27;20712;-71
2021/10/21 03:06:04;;;;;;;2.40;1.13;;;14.60;99.90;;;;;;5012923;28;20434;-71
2021/10/21 03:08:29;;;;;;;2.53;0.97;;;14.50;99.90;;;;;;5012577;28;20211;-70
2021/10/21 03:10:55;;;;;;;2.20;1.50;;;14.50;99.90;;;;;;5012504;28;20407;-71
2021/10/21 03:13:20;;;;;;;3.03;1.27;;;14.50;99.90;;;;;;5013776;28;20266;-69
2021/10/21 03:15:46;;;;;;;3.63;1.27;;;14.50;99.90;;;;;;5012427;28;20684;-71
2021/10/21 03:18:11;;;;;;;4.70;1.20;;;14.50;99.90;;;;;;5012559;28;20648;-71
2021/10/21 03:20:37;;;;;;;1.53;0.97;;;14.60;99.90;;;;;;5012600;28;20210;-71
2021/10/21 03:23:03;;;;;;;1.60;1.10;;;14.50;99.90;;;;;;5025204;28;20651;-71
2021/10/21 03:25:29;;;;;;;2.30;1.13;;;14.50;99.90;;;;;;5031893;28;20194;-71
2021/10/21 03:27:55;;;;;;;2.50;1.30;;;14.50;99.90;;;;;;5032506;27;20627;-71
2021/10/21 03:30:20;;;;;;;2.30;0.93;;;14.50;99.90;;;;;;5032202;28;20503;-70
2021/10/21 03:32:46;;;;;;;2.30;1.13;;;14.40;99.90;;;;;;5030842;28;20524;-70
2021/10/21 03:35:12;;;;;;;3.93;1.13;;;14.50;99.90;;;;;;5031487;28;20191;-71
2021/10/21 03:37:38;;;;;;;2.83;1.10;;;14.40;99.90;;;;;;5032694;28;20406;-71
2021/10/21 03:40:05;;;;;;;4.60;1.13;;;14.30;99.90;;;;;;5031328;27;20226;-70
2021/10/21 03:42:31;;;;;;;2.23;0.90;;;14.30;99.90;;;;;;5031894;28;20267;-71
2021/10/21 03:44:57;;;;;;;4.17;1.10;;;14.30;99.90;;;;;;5030079;28;20426;-71
2021/10/21 03:47:24;;;;;;;3.40;1.00;;;14.30;99.90;;;;;;5030338;28;20471;-71
2021/10/21 03:49:53;;;;;;;2.90;1.17;;;14.30;99.90;;;;;;5031247;28;20425;-70
2021/10/21 03:52:19;;;;;;;3.13;1.13;;;14.30;99.90;;;;;;5032095;28;20417;-71
2021/10/21 03:54:49;;;;;;;2.87;0.97;;;14.20;99.90;;;;;;5029721;27;20452;-71
2021/10/21 03:57:15;;;;;;;2.93;1.00;;;14.30;99.90;;;;;;5029995;28;20430;-71
2021/10/21 03:59:41;;;;;;;2.90;1.43;;;14.20;99.90;;;;;;5031700;28;20770;-71
2021/10/21 04:02:07;;;;;;;3.37;1.20;;;14.20;99.90;;;;;;5031021;28;20460;-71
2021/10/21 04:04:33;;;;;;;4.03;1.20;;;14.20;99.90;;;;;;5029488;28;20594;-70
2021/10/21 04:06:59;;;;;;;4.50;0.80;;;14.20;99.90;;;;;;5031067;27;20525;-71
2021/10/21 04:09:25;;;;;;;2.23;1.50;;;14.20;99.90;;;;;;5031768;28;20250;-71
2021/10/21 04:11:50;;;;;;;1.83;1.07;;;14.20;99.90;;;;;;5031141;28;20526;-70
2021/10/21 04:14:16;;;;;;;2.23;1.20;;;14.20;99.90;;;;;;5031065;28;20422;-70
2021/10/21 04:16:41;;;;;;;3.90;1.30;;;14.30;99.90;;;;;;5029555;27;20218;-71
2021/10/21 04:19:07;;;;;;;2.80;0.90;;;14.30;99.90;;;;;;5031610;28;20228;-71
2021/10/21 04:21:32;;;;;;;3.10;0.87;;;14.30;99.90;;;;;;5031496;28;20536;-71
2021/10/21 04:23:58;;;;;;;1.40;0.70;;;14.30;99.90;;;;;;5023382;28;20728;-71
2021/10/21 04:26:23;;;;;;;2.60;1.20;;;14.30;99.90;;;;;;5011364;28;20223;-71
2021/10/21 04:28:50;;;;;;;1.20;0.73;;;14.20;99.90;;;;;;5011295;27;20184;-71
2021/10/21 04:31:16;;;;;;;1.70;0.90;;;14.20;99.90;;;;;;5011954;28;20176;-70
2021/10/21 04:33:42;;;;;;;3.53;1.00;;;14.20;99.90;;;;;;5012179;28;20939;-71
2021/10/21 04:36:07;;;;;;;1.00;0.90;;;14.20;99.90;;;;;;5038842;28;20461;-71
2021/10/21 04:38:33;;;;;;;1.17;0.83;;;14.20;99.90;;;;;;5031329;28;20167;-71
2021/10/21 04:40:59;;;;;;;3.03;1.17;;;14.20;99.90;;;;;;5031011;28;20163;-71
2021/10/21 04:43:24;;;;;;;2.33;0.80;;;14.20;99.90;;;;;;5013146;28;20450;-71
2021/10/21 04:45:50;;;;;;;2.27;0.90;;;14.10;99.90;;;;;;5010910;28;20191;-71
2021/10/21 04:48:16;;;;;;;4.27;1.03;;;14.10;99.90;;;;;;5010888;27;20191;-72
2021/10/21 04:50:42;;;;;;;2.73;0.93;;;14.00;99.90;;;;;;5011125;28;20490;-71
2021/10/21 04:53:08;;;;;;;1.40;0.90;;;14.00;99.90;;;;;;5012278;28;20176;-71
2021/10/21 04:55:37;;;;;;;0.93;0.80;;;14.00;99.90;;;;;;5011353;28;20942;-71
2021/10/21 04:58:04;;;;;;;1.80;1.10;;;14.00;99.90;;;;;;5011387;28;20255;-71
2021/10/21 05:00:30;;;;;;;2.83;1.03;;;14.00;99.90;;;;;;5019158;27;20427;-72
2021/10/21 05:02:56;;;;;;;2.50;0.80;;;13.90;99.90;;;;;;5012820;28;20525;-71
2021/10/21 05:05:22;;;;;;;2.37;0.73;;;13.90;99.90;;;;;;5011579;28;20426;-71
2021/10/21 05:07:48;;;;;;;2.40;0.90;;;13.90;99.90;;;;;;5012715;28;20483;-71
2021/10/21 05:10:14;;;;;;;0.80;0.80;;;13.90;99.90;;;;;;5011179;28;20255;-71
2021/10/21 05:12:40;;;;;;;1.60;1.50;;;13.80;99.90;;;;;;5011244;28;20419;-72
2021/10/21 05:15:07;;;;;;;2.20;0.80;;;13.80;99.90;;;;;;5011969;28;20441;-71
2021/10/21 05:17:33;;;;;;;2.47;0.70;;;13.70;99.90;;;;;;5010304;28;20895;-71
2021/10/21 05:19:58;;;;;;;1.00;0.67;;;13.70;99.90;;;;;;5010644;28;20411;-71
2021/10/21 05:22:24;;;;;;;1.23;0.60;;;13.60;99.90;;;;;;5011222;27;20541;-71
2021/10/21 05:24:50;;;;;;;2.70;0.90;;;13.60;99.90;;;;;;5011345;28;20164;-70
2021/10/21 05:27:15;;;;;;;1.07;0.97;;;13.60;99.90;;;;;;5010838;28;20191;-70
2021/10/21 05:29:41;;;;;;;0.70;0.70;;;13.50;99.90;;;;;;5009437;28;20171;-71
2021/10/21 05:32:09;;;;;;;1.23;0.67;;;13.40;99.90;;;;;;5010523;28;20180;-70
2021/10/21 05:34:38;;;;;;;1.23;0.90;;;13.30;99.90;;;;;;5012809;27;20203;-70
2021/10/21 05:37:06;;;;;;;0.70;0.70;;;13.20;99.90;;;;;;5011176;28;20951;-71
2021/10/21 05:39:32;;;;;;;1.73;0.80;;;13.20;99.90;;;;;;5012639;28;20414;-70
2021/10/21 05:41:58;;;;;;;1.00;0.90;;;13.10;99.90;;;;;;5011653;28;20919;-70
2021/10/21 05:44:24;;;;;;;0.80;0.80;;;13.10;99.90;;;;;;5010401;28;20411;-70
2021/10/21 05:46:50;;;;;;;1.47;0.70;;;13.10;99.90;;;;;;5012240;28;20687;-70
2021/10/21 05:49:17;;;;;;;0.80;0.80;;;13.10;99.90;;;;;;5009956;27;20525;-71
2021/10/21 05:51:43;;;;;;;0.90;0.90;;;13.00;99.90;;;;;;5010272;28;20701;-70
2021/10/21 05:54:08;;;;;;;1.77;1.10;;;13.10;99.90;;;;;;5010319;28;20410;-70
2021/10/21 05:56:34;;;;;;;1.43;0.70;;;13.00;99.90;;;;;;5011558;28;20445;-70
2021/10/21 05:59:00;;;;;;;0.90;0.70;;;13.00;99.90;;;;;;5010992;28;20218;-71
2021/10/21 06:01:25;;;;;;;1.93;0.87;;;13.00;99.90;;;;;;5009938;28;20180;-71
2021/10/21 06:03:51;;;;;;;1.70;1.00;;;13.00;99.90;;;;;;5008785;28;20195;-70
2021/10/21 06:06:16;;;;;;;2.50;1.13;;;13.00;99.90;;;;;;5010099;28;20612;-70
2021/10/21 06:08:44;;;;;;;2.00;1.00;;;13.00;99.90;;;;;;5028287;28;20253;-70
2021/10/21 06:11:10;;;;;;;1.03;1.03;;;12.90;99.90;;;;;;5029909;28;20620;-70
2021/10/21 06:13:36;;;;;;;2.05;1.20;;;12.70;99.90;;;;;;5029519;28;20391;-71
2021/10/21 06:16:02;;;;;;;1.00;1.00;;;12.70;99.90;;;;;;5029813;28;20187;-71
2021/10/21 06:18:28;;;;;;;2.30;0.97;;;12.60;99.90;;;;;;5027702;27;20967;-71
2021/10/21 06:20:54;;;;;;;1.70;1.30;;;12.50;99.90;;;;;;5022812;27;20464;-71
2021/10/21 06:23:19;;;;;;;1.47;1.20;;;12.50;99.90;;;;;;5025815;28;20195;-71
2021/10/21 06:25:46;;;;;;;1.53;1.10;;;12.40;99.90;;;;;;5049727;28;21257;-71
2021/10/21 06:28:11;;;;;;;5.13;1.40;;;12.40;99.90;;;;;;5066277;27;20221;-70
2021/10/21 06:30:37;;;;;;;2.87;1.60;;;12.30;99.90;;;;;;5089034;27;20460;-71
2021/10/21 06:33:03;;;;;;;1.57;1.10;;;12.10;99.90;;;;;;5086187;27;20234;-71
2021/10/21 06:35:30;;;;;;;1.50;1.20;;;12.10;99.90;;;;;;5104880;27;20225;-71
2021/10/21 06:37:56;;;;;;;4.17;1.50;;;11.90;99.90;;;;;;5101662;27;20440;-71
2021/10/21 06:40:22;;;;;;;2.23;1.70;;;11.90;99.90;;;;;;5023681;27;20501;-71
2021/10/21 06:42:51;;;;;;;1.47;1.37;;;11.80;99.90;;;;;;5039960;27;20477;-71
2021/10/21 06:45:17;;;;;;;2.97;1.47;;;11.60;99.90;;;;;;5062891;27;20461;-71
2021/10/21 06:47:43;;;;;;;3.73;1.00;;;11.40;99.90;;;;;;5055475;28;20440;-70
2021/10/21 06:50:10;;;;;;;1.93;1.17;;;11.20;99.90;;;;;;5050948;27;20471;-71
2021/10/21 06:52:37;;;;;;;4.37;1.10;;;11.20;99.90;;;;;;5041106;28;20226;-71
2021/10/21 06:55:03;;;;;;;2.43;1.00;;;11.10;99.90;;;;;;5029531;27;20446;-71
2021/10/21 06:57:29;;;;;;;1.37;1.00;;;11.00;99.90;;;;;;5030144;28;20786;-70
2021/10/21 06:59:54;;;;;;;1.20;1.10;;;10.90;99.90;;;;;;5039604;27;20457;-71
2021/10/21 07:02:20;;;;;;;1.40;0.63;;;10.90;99.90;;;;;;5049975;28;20201;-71
2021/10/21 07:04:45;;;;;;;2.50;1.07;;;10.70;99.90;;;;;;5011556;27;20219;-70
2021/10/21 07:07:11;;;;;;;1.37;1.00;;;10.70;99.90;;;;;;5010833;28;20333;-71
2021/10/21 07:09:36;;;;;;;3.00;1.67;;;10.70;99.90;;;;;;5022253;27;20219;-70
2021/10/21 07:12:03;;;;;;;4.70;1.40;;;10.60;99.90;;;;;;5012789;28;20282;-70
2021/10/21 07:14:29;;;;;;;1.97;1.00;;;10.60;99.90;;;;;;5010595;27;20291;-70
2021/10/21 07:16:54;;;;;;;3.97;1.10;;;10.60;99.90;;;;;;5011335;28;20548;-70
2021/10/21 07:19:20;;;;;;;3.00;1.40;;;10.50;99.90;;;;;;5011637;28;20490;-69
2021/10/21 07:21:45;;;;;;;3.83;1.10;;;10.40;99.90;;;;;;5012741;28;20203;-70
2021/10/21 07:24:11;;;;;;;4.00;1.33;;;10.40;99.90;;;;;;5013737;28;20583;-70
2021/10/21 07:26:36;;;;;;;1.43;1.33;;;10.40;99.90;;;;;;5012860;28;20187;-70
2021/10/21 07:29:02;;;;;;;5.20;1.40;;;10.30;99.90;;;;;;5012513;28;20172;-70
2021/10/21 07:31:28;;;;;;;1.57;1.33;;;10.20;99.90;;;;;;5012759;28;20323;-70
2021/10/21 07:33:53;;;;;;;3.00;1.50;;;10.30;99.90;;;;;;5029407;28;20424;-70
2021/10/21 07:36:20;;;;;;;4.40;1.80;;;10.30;99.90;;;;;;5034410;28;20191;-69
2021/10/21 07:38:46;;;;;;;3.90;1.60;;;10.30;99.90;;;;;;5032324;28;20170;-71
2021/10/21 07:41:12;;;;;;;3.83;1.80;;;10.30;99.90;;;;;;5032327;28;20406;-71
2021/10/21 07:43:37;;;;;;;3.07;1.80;;;10.30;99.90;;;;;;5032441;28;20771;-71
2021/10/21 07:46:04;;;;;;;6.63;1.87;;;10.30;99.90;;;;;;5032368;28;20422;-70
2021/10/21 07:48:29;;;;;;;8.70;2.30;;;10.40;99.90;;;;;;5037190;27;20198;-70
2021/10/21 07:50:55;;;;;;;6.30;2.13;;;10.40;99.90;;;;;;5041405;28;20484;-70
2021/10/21 07:53:21;;;;;;;3.80;2.40;;;10.50;99.90;;;;;;5032197;28;20281;-70
2021/10/21 07:55:46;;;;;;;9.73;2.70;;;10.50;99.90;;;;;;5031228;28;20483;-70
2021/10/21 07:58:12;;;;;;;11.20;3.20;;;10.60;99.90;;;;;;5030244;28;20206;-70
2021/10/21 08:00:38;;;;;;;8.17;3.20;;;10.70;99.90;;;;;;5033391;27;20198;-70
2021/10/21 08:03:04;;;;;;;9.57;3.20;;;10.70;99.90;;;;;;5031951;28;20203;-71
2021/10/21 08:05:31;;;;;;;7.80;3.03;;;10.70;99.90;;;;;;5031774;28;20796;-70
2021/10/21 08:07:56;;;;;;;3.60;2.23;;;10.80;99.90;;;;;;5030459;28;20481;-70
2021/10/21 08:10:23;;;;;;;5.30;2.30;;;10.80;99.90;;;;;;5031595;28;20497;-70
2021/10/21 08:12:50;;;;;;;7.40;2.60;;;10.80;99.90;;;;;;5036283;28;20175;-70
2021/10/21 08:15:16;;;;;;;7.60;2.37;;;10.80;99.90;;;;;;5041548;28;20900;-70
2021/10/21 08:17:44;;;;;;;10.20;2.73;;;10.80;99.90;;;;;;5030847;28;20406;-71
2021/10/21 08:20:13;;;;;;;6.30;2.40;;;10.80;99.90;;;;;;5030428;28;20430;-70
2021/10/21 08:22:44;;;;;;;6.33;2.83;;;10.80;99.90;;;;;;5031922;28;20941;-70
2021/10/21 08:25:11;;;;;;;6.23;2.20;;;10.80;99.90;;;;;;5032156;28;20410;-70
2021/10/21 08:27:38;;;;;;;5.85;2.40;;;10.90;99.90;;;;;;5030449;27;20418;-71
2021/10/21 08:30:05;;;;;;;7.80;2.20;;;10.90;99.90;;;;;;5011575;28;20182;-70
2021/10/21 08:32:31;;;;;;;2.77;1.93;;;10.90;99.90;;;;;;5011477;28;20418;-71
2021/10/21 08:34:58;;;;;;;4.90;2.10;;;11.00;99.90;;;;;;5045234;28;20417;-70
2021/10/21 08:37:23;;;;;;;3.73;2.03;;;11.00;99.90;;;;;;5051549;28;20313;-70
2021/10/21 08:39:49;;;;;;;3.20;2.10;;;11.10;99.90;;;;;;5026258;28;20930;-70
2021/10/21 08:42:17;;;;;;;7.03;2.23;;;11.10;99.90;;;;;;5018174;28;20772;-70
2021/10/21 08:44:46;;;;;;;4.10;2.20;;;11.10;99.90;;;;;;5031071;28;20171;-71
2021/10/21 08:47:12;;;;;;;9.60;2.90;;;11.20;99.90;;;;;;5031083;28;20448;-70
2021/10/21 08:49:40;;;;;;;4.90;2.70;;;11.10;99.90;;;;;;5030888;27;20502;-70
2021/10/21 08:52:06;;;;;;;7.23;3.13;;;11.10;99.90;;;;;;5028381;28;20448;-70
2021/10/21 08:54:31;;;;;;;6.33;1.87;;;11.20;99.90;;;;;;5011948;28;20427;-70
2021/10/21 08:56:58;;;;;;;6.70;3.03;;;11.20;99.90;;;;;;5010773;28;20431;-70
2021/10/21 08:59:24;;;;;;;5.07;2.53;;;11.30;99.90;;;;;;5011641;28;20172;-70
2021/10/21 09:01:58;;;;;;;5.87;2.50;;;11.40;99.90;;;;;;5011023;28;20939;-70
2021/10/21 09:04:52;;;;;;;7.03;2.93;;;11.40;99.90;;;;;;5010903;28;20227;-71
2021/10/21 09:10:11;;;;;;;7.87;3.10;;;11.60;99.90;;;;;;5011400;28;20498;-70
2021/10/21 09:12:41;;;;;;;7.60;2.80;;;11.70;99.90;;;;;;5010742;28;20418;-71
2021/10/21 09:15:23;;;;;;;8.43;2.97;;;11.70;99.90;;;;;;5011902;28;20804;-71
2021/10/21 09:17:50;;;;;;;10.87;3.10;;;11.70;99.90;;;;;;5009252;28;20438;-70
2021/10/21 09:20:38;;;;;;;7.47;3.37;;;11.80;99.90;;;;;;5010789;27;20433;-71
2021/10/21 09:23:09;;;;;;;17.13;4.43;;;11.90;99.90;;;;;;5009544;28;20474;-71
2021/10/21 09:25:36;;;;;;;6.87;2.50;;;11.90;99.90;;;;;;5011372;28;20446;-71
2021/10/21 09:28:22;;;;;;;7.03;2.70;;;11.90;99.90;;;;;;5010609;28;20489;-71
2021/10/21 09:31:17;;;;;;;6.55;3.28;;;11.90;99.90;;;;;;5010696;28;21014;-71
2021/10/21 09:33:54;;;;;;;10.70;3.60;;;11.90;99.90;;;;;;5028256;28;20183;-71
2021/10/21 09:36:26;;;;;;;4.97;3.60;;;11.80;99.90;;;;;;5017524;28;20453;-71
2021/10/21 09:38:55;;;;;;;8.70;3.50;;;11.80;99.90;;;;;;5012792;28;20427;-71
2021/10/21 09:41:23;;;;;;;4.10;2.70;;;11.80;99.90;;;;;;5011116;28;20741;-71
2021/10/21 09:43:50;;;;;;;5.83;3.73;;;11.70;99.90;;;;;;5010758;28;20422;-71
2021/10/21 09:46:41;;;;;;;7.60;3.00;;;11.70;99.90;;;;;;5011796;28;20533;-70
2021/10/21 09:49:18;;;;;;;8.13;4.23;;;11.80;99.90;;;;;;5010180;27;20460;-70
2021/10/21 09:51:45;;;;;;;5.87;3.13;;;11.70;99.90;;;;;;5010450;28;20406;-71
2021/10/21 09:54:21;;;;;;;8.83;4.30;;;11.70;99.90;;;;;;5015992;28;20433;-70
2021/10/21 09:57:06;;;;;;;4.83;3.03;;;11.70;99.90;;;;;;5012197;28;20966;-70
2021/10/21 09:59:38;;;;;;;3.80;2.50;;;11.60;99.90;;;;;;5010512;28;20442;-70
2021/10/21 10:02:20;;;;;;;7.67;3.07;;;11.70;99.90;;;;;;5009124;27;20565;-70
2021/10/21 10:04:54;;;;;;;4.47;2.43;;;11.70;99.90;;;;;;5026807;28;20500;-70
2021/10/21 10:07:22;;;;;;;6.37;2.70;;;11.70;99.90;;;;;;5034403;28;20447;-70
2021/10/21 10:09:48;;;;;;;8.07;2.50;;;11.80;99.90;;;;;;5033043;28;20424;-70
2021/10/21 10:12:14;;;;;;;7.70;2.80;;;11.90;99.90;;;;;;5034034;28;20413;-70
2021/10/21 10:14:45;;;;;;;6.50;2.77;;;11.90;99.90;;;;;;5032387;28;20187;-70
2021/10/21 10:17:11;;;;;;;5.10;2.30;;;11.90;99.90;;;;;;5033218;28;20440;-70
2021/10/21 10:19:48;;;;;;;3.70;2.30;;;11.90;99.90;;;;;;5033439;28;20915;-70
2021/10/21 10:22:28;;;;;;;4.43;2.30;;;11.90;99.90;;;;;;5033756;28;20540;-70
2021/10/21 10:24:54;;;;;;;3.13;2.10;;;11.90;99.90;;;;;;5031397;28;20508;-71
2021/10/21 10:27:30;;;;;;;4.63;2.30;;;12.00;99.90;;;;;;5033023;27;20894;-70
2021/10/21 10:30:00;;;;;;;4.73;2.30;;;11.90;99.90;;;;;;5033323;28;20465;-70
2021/10/21 10:32:39;;;;;;;5.83;2.00;;;11.90;99.90;;;;;;5032123;28;20769;-70
2021/10/21 10:35:14;;;;;;;5.27;2.20;;;12.00;99.90;;;;;;5045423;28;20447;-74
2021/10/21 10:37:43;;;;;;;3.67;1.73;;;12.00;99.90;;;;;;5011979;27;20441;-70
2021/10/21 10:40:10;;;;;;;15.70;2.10;;;12.00;99.90;;;;;;5007145;28;20488;-71
2021/10/21 10:42:35;;;;;;;4.77;1.93;;;12.00;99.90;;;;;;5020882;27;20477;-71
2021/10/21 10:45:05;;;;;;;5.33;1.80;;;12.10;99.90;;;;;;5030843;28;20490;-70
2021/10/21 10:47:47;;;;;;;7.53;2.30;;;12.10;99.90;;;;;;5029996;27;20264;-67
2021/10/21 10:50:17;;;;;;;4.73;2.23;;;12.10;99.90;;;;;;5030708;27;20473;-72
2021/10/21 10:52:55;;;;;;;5.33;2.23;;;12.10;99.90;;;;;;5028222;27;20461;-70
2021/10/21 10:55:23;;;;;;;3.90;2.40;;;12.10;99.90;;;;;;5029900;28;20449;-71
2021/10/21 10:57:50;;;;;;;4.23;2.20;;;12.10;99.90;;;;;;5030147;27;20984;-71
2021/10/21 11:00:47;;;;;;;5.03;1.80;;;12.10;99.90;;;;;;5032204;28;20528;-71
2021/10/21 11:03:28;;;;;;;6.20;2.10;;;12.20;99.90;;;;;;5028385;27;20545;-70
2021/10/21 11:05:55;;;;;;;5.57;1.70;;;12.20;99.90;;;;;;5024494;28;20946;-71
2021/10/21 11:08:41;;;;;;;4.87;1.90;;;12.10;99.90;;;;;;5011582;27;20493;-70
2021/10/21 11:11:06;;;;;;;7.07;2.10;;;12.10;99.90;;;;;;5010810;28;20446;-71
2021/10/21 11:13:32;;;;;;;3.83;2.00;;;12.10;99.90;;;;;;5016768;27;20480;-72
2021/10/21 11:15:58;;;;;;;7.10;2.37;;;12.10;99.90;;;;;;5052850;28;20274;-71
2021/10/21 11:18:47;;;;;;;6.40;2.77;;;12.10;99.90;;;;;;5052801;27;20171;-71
2021/10/21 11:21:45;;;;;;;5.27;2.53;;;12.10;99.90;;;;;;5052626;28;20739;-71
2021/10/21 11:24:10;;;;;;;10.73;3.83;;;12.20;99.90;;;;;;5044156;28;20425;-71
2021/10/21 11:26:37;;;;;;;6.17;2.50;;;12.20;99.90;;;;;;5014624;28;20422;-71
2021/10/21 11:29:03;;;;;;;8.23;2.90;;;12.20;99.90;;;;;;5024007;28;20163;-71
2021/10/21 11:31:29;;;;;;;4.93;2.50;;;12.20;99.90;;;;;;5014075;28;20418;-71
2021/10/21 11:33:57;;;;;;;5.07;2.17;;;12.30;99.90;;;;;;5029095;28;20473;-71
2021/10/21 11:36:23;;;;;;;4.40;2.27;;;12.40;99.90;;;;;;5021006;28;20481;-71
2021/10/21 11:39:07;;;;;;;7.53;2.37;;;12.30;99.90;;;;;;5012806;28;20853;-71
2021/10/21 11:41:33;;;;;;;7.57;2.27;;;12.40;99.90;;;;;;5011897;28;20471;-71
2021/10/21 11:43:58;;;;;;;3.23;2.00;;;12.40;99.90;;;;;;5011705;28;20410;-71
2021/10/21 11:46:24;;;;;;;5.60;2.33;;;12.40;99.90;;;;;;5023181;28;20203;-70
2021/10/21 11:48:55;;;;;;;6.70;2.27;;;12.30;99.90;;;;;;5031842;27;20543;-71
2021/10/21 11:51:29;;;;;;;6.47;2.60;;;12.30;99.90;;;;;;5031827;28;20230;-71
2021/10/21 11:53:56;;;;;;;6.13;2.40;;;12.20;99.90;;;;;;5031510;28;20475;-71
2021/10/21 11:56:24;;;;;;;8.43;2.60;;;12.20;99.90;;;;;;5030162;28;20448;-71
2021/10/21 11:58:50;;;;;;;4.90;2.93;;;12.20;99.90;;;;;;5032244;28;20413;-71
2021/10/21 12:01:23;;;;;;;10.90;2.50;;;12.20;99.90;;;;;;5031932;27;20782;-71
2021/10/21 12:03:49;;;;;;;5.75;2.90;;;12.20;99.90;;;;;;5030170;28;20804;-71
2021/10/21 12:06:16;;;;;;;4.70;1.93;;;12.20;99.90;;;;;;5032438;28;20262;-71
2021/10/21 12:08:54;;;;;;;5.20;2.10;;;12.20;99.90;;;;;;5028450;28;20424;-71
2021/10/21 12:11:20;;;;;;;2.10;1.47;;;12.10;99.90;;;;;;5031628;28;20378;-71
2021/10/21 12:13:45;;;;;;;2.93;1.90;;;12.10;99.90;;;;;;5031381;28;20432;-71
2021/10/21 12:16:17;;;;;;;3.93;1.90;;;12.10;99.90;;;;;;5031550;28;20970;-71
2021/10/21 12:18:42;;;;;;;4.93;1.40;;;12.10;99.90;;;;;;5029546;28;20211;-71
2021/10/21 12:21:08;;;;;;;3.23;1.50;;;12.10;99.90;;;;;;5031044;28;20441;-71
2021/10/21 12:23:55;;;;;;;3.53;1.70;;;12.20;99.90;;;;;;5031620;28;20598;-70
2021/10/21 12:26:30;;;;;;;3.30;1.50;;;12.20;99.90;;;;;;5031311;27;20205;-70
2021/10/21 12:29:06;;;;;;;2.97;1.70;;;12.20;99.90;;;;;;5030758;28;20445;-70
2021/10/21 12:31:36;;;;;;;1.93;1.30;;;12.10;99.90;;;;;;5031446;27;20429;-71
2021/10/21 12:34:10;;;;;;;2.27;1.33;;;12.10;99.90;;;;;;5040392;28;20420;-70
2021/10/21 12:36:48;;;;;;;1.50;1.20;;;12.10;99.90;;;;;;5044052;28;20441;-71
2021/10/21 12:39:23;;;;;;;3.67;1.53;;;12.00;99.90;;;;;;5031276;28;20414;-70
2021/10/21 12:41:57;;;;;;;2.03;1.30;;;12.00;99.90;;;;;;5027383;28;20454;-70
2021/10/21 12:44:25;;;;;;;1.43;1.20;;;11.90;99.90;;;;;;5011531;28;20399;-70
2021/10/21 12:47:08;;;;;;;3.23;1.40;;;12.00;99.90;;;;;;5011148;28;20445;-70
2021/10/21 12:49:34;;;;;;;2.53;1.23;;;11.90;99.90;;;;;;5015808;27;20442;-70
2021/10/21 12:52:08;;;;;;;3.73;1.20;;;12.00;99.90;;;;;;5014204;28;20409;-70